Time;durP1;ratioP1;P1;durP2;ratioP2;P2;SDS_P1;SDS_P2;PMS_P1;PMS_P2;Temp;Humidity;BMP_temperature;BMP_pressure;BME280_temperature;BME280_humidity;BME280_pressure;Samples;Min_cycle;Max_cycle;Signal;HPM_P1;HPM_P2
2020/12/22 00:01:18;;;;;;;58.60;26.07;;;2.70;99.90;;;;;;4945335;28;20190;-91
2020/12/22 00:03:44;;;;;;;56.57;25.57;;;1.40;99.90;;;;;;4977675;28;20190;-91
2020/12/22 00:06:10;;;;;;;59.50;27.50;;;2.20;99.90;;;;;;4993586;28;20622;-92
2020/12/22 00:08:36;;;;;;;52.77;23.30;;;3.10;99.90;;;;;;4961580;28;20181;-91
2020/12/22 00:11:02;;;;;;;59.83;26.17;;;1.30;99.90;;;;;;4993239;28;20186;-92
2020/12/22 00:13:29;;;;;;;65.40;29.13;;;3.50;99.90;;;;;;4976975;28;20680;-90
2020/12/22 00:15:55;;;;;;;72.87;29.97;;;2.70;99.90;;;;;;4977156;28;20192;-92
2020/12/22 00:18:21;;;;;;;66.40;26.77;;;1.30;99.90;;;;;;4977169;28;20180;-92
2020/12/22 00:20:47;;;;;;;66.53;29.07;;;1.50;99.90;;;;;;4995013;28;20173;-92
2020/12/22 00:23:13;;;;;;;72.23;28.20;;;2.50;99.90;;;;;;4961359;28;20685;-93
2020/12/22 00:25:43;;;;;;;60.00;26.33;;;3.50;99.90;;;;;;4994639;28;20176;-92
2020/12/22 00:28:09;;;;;;;66.70;28.90;;;1.20;99.90;;;;;;4994961;28;20240;-92
2020/12/22 00:30:36;;;;;;;62.27;27.43;;;1.20;99.90;;;;;;4993012;28;20603;-92
2020/12/22 00:33:02;;;;;;;59.60;27.00;;;1.20;99.90;;;;;;4994571;28;20201;-91
2020/12/22 00:35:28;;;;;;;61.57;26.57;;;1.10;99.90;;;;;;4992684;28;20185;-91
2020/12/22 00:37:54;;;;;;;54.63;26.20;;;1.10;99.90;;;;;;4944849;28;20272;-93
2020/12/22 00:40:19;;;;;;;59.43;28.40;;;1.90;99.90;;;;;;4976348;28;20181;-92
2020/12/22 00:42:45;;;;;;;59.03;28.53;;;1.10;99.90;;;;;;4960830;28;20608;-91
2020/12/22 00:45:11;;;;;;;59.13;29.27;;;1.10;99.90;;;;;;4992741;28;20756;-92
2020/12/22 00:47:36;;;;;;;61.90;27.57;;;2.50;99.90;;;;;;4960430;28;20691;-92
2020/12/22 00:50:02;;;;;;;62.57;28.73;;;1.30;99.90;;;;;;4960821;28;20565;-93
2020/12/22 00:52:28;;;;;;;62.33;30.90;;;1.70;99.90;;;;;;4993730;28;20232;-92
2020/12/22 00:54:53;;;;;;;63.07;30.33;;;1.00;99.90;;;;;;4994168;28;20650;-92
2020/12/22 00:57:19;;;;;;;62.60;29.10;;;1.20;99.90;;;;;;4992666;28;20197;-93
2020/12/22 00:59:45;;;;;;;65.67;30.90;;;2.70;99.90;;;;;;4993202;28;20270;-91
2020/12/22 01:02:11;;;;;;;63.10;30.13;;;1.00;99.90;;;;;;4976765;28;20189;-92
2020/12/22 01:04:37;;;;;;;129.40;47.83;;;1.00;99.90;;;;;;4992540;28;20212;-92
2020/12/22 01:07:02;;;;;;;90.00;36.47;;;2.70;99.90;;;;;;4976455;28;20646;-92
2020/12/22 01:09:28;;;;;;;63.70;29.30;;;2.50;99.90;;;;;;4943755;28;20665;-93
2020/12/22 01:11:54;;;;;;;89.50;37.33;;;0.90;99.90;;;;;;4976598;28;20197;-91
2020/12/22 01:14:20;;;;;;;66.47;28.07;;;2.70;99.90;;;;;;4976040;28;20213;-92
2020/12/22 01:16:45;;;;;;;69.17;26.50;;;3.00;99.90;;;;;;4976372;28;20189;-92
2020/12/22 01:19:11;;;;;;;60.33;27.17;;;0.80;99.90;;;;;;4993784;28;20619;-91
2020/12/22 01:21:37;;;;;;;71.17;32.33;;;0.70;99.90;;;;;;4992185;28;20264;-93
2020/12/22 01:24:06;;;;;;;109.17;44.37;;;1.90;99.90;;;;;;4992438;28;20193;-92
2020/12/22 01:26:32;;;;;;;77.50;32.77;;;0.90;99.90;;;;;;4992285;28;20654;-91
2020/12/22 01:28:59;;;;;;;57.60;26.93;;;2.60;99.90;;;;;;4992754;28;20187;-93
2020/12/22 01:31:28;;;;;;;68.63;27.73;;;0.60;99.90;;;;;;4992504;28;20207;-92
2020/12/22 01:33:55;;;;;;;69.93;30.20;;;2.60;99.90;;;;;;4992164;28;20232;-90
2020/12/22 01:36:22;;;;;;;54.77;23.77;;;-0.80;99.90;;;;;;4959956;28;20201;-92
2020/12/22 01:38:48;;;;;;;59.23;27.63;;;2.00;99.90;;;;;;4993851;28;20211;-92
2020/12/22 01:41:14;;;;;;;53.27;26.57;;;1.10;99.90;;;;;;4992636;28;20213;-92
2020/12/22 01:43:41;;;;;;;70.27;33.97;;;2.70;99.90;;;;;;4995795;28;20181;-92
2020/12/22 01:46:07;;;;;;;54.03;26.73;;;2.70;99.90;;;;;;4996065;28;20729;-90
2020/12/22 01:48:34;;;;;;;65.47;28.07;;;0.60;99.90;;;;;;4995632;28;20276;-92
2020/12/22 01:51:00;;;;;;;53.07;24.50;;;0.40;99.90;;;;;;4996174;28;20184;-92
2020/12/22 01:53:25;;;;;;;53.20;24.00;;;0.40;99.90;;;;;;4996922;28;20209;-93
2020/12/22 01:55:52;;;;;;;49.93;24.70;;;2.30;99.90;;;;;;4980014;28;20194;-91
2020/12/22 01:58:18;;;;;;;54.23;25.43;;;0.20;99.90;;;;;;4980251;28;20195;-93
2020/12/22 02:00:43;;;;;;;66.33;31.87;;;2.50;99.90;;;;;;4979845;28;20186;-92
2020/12/22 02:03:10;;;;;;;64.40;31.90;;;0.70;99.90;;;;;;4980100;28;20704;-92
2020/12/22 02:05:39;;;;;;;186.83;61.67;;;0.10;99.90;;;;;;4979602;28;20201;-93
2020/12/22 02:08:05;;;;;;;68.10;29.47;;;2.50;99.90;;;;;;4997390;28;20263;-92
2020/12/22 02:10:32;;;;;;;60.93;27.00;;;2.10;99.90;;;;;;4979594;28;20226;-93
2020/12/22 02:13:01;;;;;;;75.67;30.33;;;2.00;99.90;;;;;;4997298;28;20180;-92
2020/12/22 02:15:28;;;;;;;55.93;28.17;;;0.10;99.90;;;;;;4996024;28;20219;-91
2020/12/22 02:17:53;;;;;;;77.00;34.40;;;2.40;99.90;;;;;;4996919;28;20271;-92
2020/12/22 02:20:19;;;;;;;129.67;46.07;;;1.80;99.90;;;;;;4979944;28;20216;-92
2020/12/22 02:22:45;;;;;;;95.50;37.20;;;1.80;99.90;;;;;;4947577;28;20181;-93
2020/12/22 02:25:15;;;;;;;62.47;29.20;;;2.00;99.90;;;;;;4979846;28;20662;-91
2020/12/22 02:27:41;;;;;;;52.60;24.17;;;2.20;99.90;;;;;;4963501;28;20255;-93
2020/12/22 02:30:08;;;;;;;82.10;33.10;;;0.80;99.90;;;;;;4996146;28;20269;-92
2020/12/22 02:32:34;;;;;;;57.10;27.17;;;1.10;99.90;;;;;;4979464;28;20582;-92
2020/12/22 02:35:00;;;;;;;75.60;31.87;;;1.00;99.90;;;;;;4979462;28;20237;-92
2020/12/22 02:37:26;;;;;;;84.77;36.20;;;2.70;99.90;;;;;;4995622;28;20673;-93
2020/12/22 02:39:52;;;;;;;99.97;40.37;;;1.50;99.90;;;;;;4995285;28;20193;-92
2020/12/22 02:42:17;;;;;;;66.17;30.13;;;-0.10;99.90;;;;;;4995658;28;20548;-91
2020/12/22 02:44:43;;;;;;;75.23;33.30;;;2.00;99.90;;;;;;4994529;28;20566;-91
2020/12/22 02:47:14;;;;;;;70.83;31.77;;;2.50;99.90;;;;;;4978741;28;20221;-91
2020/12/22 02:49:41;;;;;;;71.07;31.23;;;1.80;99.90;;;;;;4978762;28;20178;-92
2020/12/22 02:52:07;;;;;;;74.63;35.60;;;2.70;99.90;;;;;;4979202;28;20180;-93
2020/12/22 02:54:34;;;;;;;63.97;30.50;;;-0.10;99.90;;;;;;4993907;28;20739;-90
2020/12/22 02:56:59;;;;;;;55.73;27.37;;;2.50;99.90;;;;;;4963413;28;20282;-93
2020/12/22 02:59:25;;;;;;;104.17;37.23;;;1.00;99.90;;;;;;4979381;28;20612;-94
2020/12/22 03:01:51;;;;;;;81.43;30.40;;;-0.10;99.90;;;;;;4978891;28;20651;-93
2020/12/22 03:04:17;;;;;;;105.20;40.10;;;0.30;99.90;;;;;;4979428;28;20190;-93
2020/12/22 03:06:42;;;;;;;91.33;34.53;;;1.00;99.90;;;;;;4962641;28;20191;-92
2020/12/22 03:09:08;;;;;;;70.57;30.60;;;1.30;99.90;;;;;;4995030;28;20650;-90
2020/12/22 03:11:35;;;;;;;71.43;30.47;;;0.20;99.90;;;;;;4994792;28;20191;-92
2020/12/22 03:14:01;;;;;;;58.47;26.20;;;1.30;99.90;;;;;;4994663;28;20300;-91
2020/12/22 03:16:26;;;;;;;58.87;26.17;;;0.30;99.90;;;;;;4994829;28;20178;-91
2020/12/22 03:18:52;;;;;;;58.60;28.23;;;1.40;99.90;;;;;;4961730;28;20187;-92
2020/12/22 03:21:18;;;;;;;79.43;33.13;;;0.80;99.90;;;;;;4962365;28;20182;-91
2020/12/22 03:23:44;;;;;;;79.77;32.97;;;-0.10;99.90;;;;;;4994309;28;20226;-93
2020/12/22 03:26:10;;;;;;;67.27;29.13;;;-0.10;99.90;;;;;;4994749;28;20224;-91
2020/12/22 03:28:36;;;;;;;60.20;27.40;;;0.80;99.90;;;;;;4996576;28;20266;-93
2020/12/22 03:31:02;;;;;;;68.00;29.30;;;1.70;99.90;;;;;;4962873;28;20186;-94
2020/12/22 03:33:28;;;;;;;111.03;42.90;;;0.40;99.90;;;;;;4979220;28;20206;-94
2020/12/22 03:35:54;;;;;;;68.13;31.93;;;0.50;99.90;;;;;;4995178;28;20191;-94
2020/12/22 03:38:20;;;;;;;64.53;29.40;;;2.30;99.90;;;;;;4964791;28;20189;-95
2020/12/22 03:40:46;;;;;;;86.23;34.33;;;2.40;99.90;;;;;;4996568;28;20192;-94
2020/12/22 03:43:13;;;;;;;64.67;28.47;;;-0.30;99.90;;;;;;4964015;28;20288;-95
2020/12/22 03:45:39;;;;;;;59.17;29.00;;;-0.10;99.90;;;;;;4994947;28;20228;-93
2020/12/22 03:48:05;;;;;;;68.03;32.50;;;1.50;99.90;;;;;;4962243;28;20192;-92
2020/12/22 03:50:31;;;;;;;66.60;29.90;;;2.10;99.90;;;;;;4978886;28;20512;-93
2020/12/22 03:53:01;;;;;;;56.80;28.50;;;-1.20;99.90;;;;;;4978899;28;20186;-90
2020/12/22 03:55:27;;;;;;;74.57;36.23;;;2.10;99.90;;;;;;4979294;28;20221;-92
2020/12/22 03:57:52;;;;;;;91.87;40.10;;;1.80;99.90;;;;;;4979016;28;20227;-94
2020/12/22 04:00:21;;;;;;;90.17;36.50;;;0.50;99.90;;;;;;4995596;28;20174;-95
2020/12/22 04:02:46;;;;;;;92.63;38.40;;;0.20;99.90;;;;;;4978732;28;20727;-95
2020/12/22 04:05:13;;;;;;;79.27;34.97;;;1.50;99.90;;;;;;4979085;28;20288;-91
2020/12/22 04:07:39;;;;;;;69.83;32.17;;;-0.20;99.90;;;;;;4997606;28;20192;-96
2020/12/22 04:10:08;;;;;;;62.20;28.83;;;-0.20;99.90;;;;;;4994343;28;20227;-92
2020/12/22 04:12:34;;;;;;;59.43;27.47;;;0.50;99.90;;;;;;4978048;28;20185;-94
2020/12/22 04:15:00;;;;;;;70.07;29.50;;;-0.20;99.90;;;;;;4994326;28;20214;-93
2020/12/22 04:17:26;;;;;;;90.03;40.37;;;1.20;99.90;;;;;;4994788;28;20276;-92
2020/12/22 04:19:52;;;;;;;88.07;39.70;;;-0.30;99.90;;;;;;4994138;28;20323;-94
2020/12/22 04:22:18;;;;;;;82.13;36.50;;;-0.20;99.90;;;;;;4994427;28;20188;-94
2020/12/22 04:24:43;;;;;;;62.27;30.13;;;2.30;99.90;;;;;;4978512;28;20188;-93
2020/12/22 04:27:09;;;;;;;87.60;38.43;;;1.90;99.90;;;;;;4995096;28;20184;-93
2020/12/22 04:29:35;;;;;;;82.30;36.63;;;1.90;99.90;;;;;;4977895;28;20545;-91
2020/12/22 04:32:00;;;;;;;72.60;31.33;;;1.90;99.90;;;;;;4960654;28;20526;-92
2020/12/22 04:34:26;;;;;;;80.17;34.00;;;-0.30;99.90;;;;;;4961141;28;20213;-92
2020/12/22 04:36:53;;;;;;;68.93;31.00;;;2.20;99.90;;;;;;4961085;28;20211;-92
2020/12/22 04:39:19;;;;;;;80.63;33.93;;;0.20;99.90;;;;;;4977635;28;20713;-92
2020/12/22 04:41:49;;;;;;;72.90;30.60;;;2.00;99.90;;;;;;4994702;28;20179;-93
2020/12/22 04:44:16;;;;;;;78.13;33.60;;;-1.20;99.90;;;;;;4999040;28;20246;-93
2020/12/22 04:46:48;;;;;;;70.67;30.27;;;2.10;99.90;;;;;;4999242;28;20631;-93
2020/12/22 04:49:19;;;;;;;69.00;30.13;;;1.40;99.90;;;;;;4999035;28;20238;-94
2020/12/22 04:51:49;;;;;;;68.53;28.60;;;1.20;99.90;;;;;;5015575;28;20186;-94
2020/12/22 04:54:17;;;;;;;65.80;27.53;;;1.50;99.90;;;;;;5018126;28;20232;-91
2020/12/22 04:56:45;;;;;;;73.87;30.47;;;1.90;99.90;;;;;;5018930;28;20168;-92
2020/12/22 04:59:14;;;;;;;73.60;31.60;;;1.40;99.90;;;;;;5018452;28;20176;-90
2020/12/22 05:01:44;;;;;;;98.83;38.07;;;-0.40;99.90;;;;;;4988600;28;20191;-93
2020/12/22 05:04:12;;;;;;;104.97;38.33;;;2.20;99.90;;;;;;4989873;28;20239;-95
2020/12/22 05:06:39;;;;;;;118.47;46.60;;;2.10;99.90;;;;;;4998275;28;20189;-91
2020/12/22 05:09:05;;;;;;;116.00;47.23;;;1.40;99.90;;;;;;5017796;28;20243;-93
2020/12/22 05:11:35;;;;;;;99.23;42.47;;;0.30;99.90;;;;;;5017915;28;20233;-95
2020/12/22 05:14:01;;;;;;;106.57;42.63;;;1.60;99.90;;;;;;5000110;28;20215;-92
2020/12/22 05:16:27;;;;;;;105.30;41.17;;;2.00;99.90;;;;;;4997353;28;20211;-96
2020/12/22 05:18:56;;;;;;;82.73;33.83;;;1.10;99.90;;;;;;4997790;28;20676;-96
2020/12/22 05:21:23;;;;;;;62.10;27.27;;;0.50;99.90;;;;;;4995157;28;20182;-95
2020/12/22 05:23:50;;;;;;;72.43;30.00;;;1.20;99.90;;;;;;4994076;28;20190;-94
2020/12/22 05:26:22;;;;;;;69.83;30.57;;;-0.40;99.90;;;;;;4977406;28;20185;-94
2020/12/22 05:28:49;;;;;;;59.13;26.17;;;2.10;99.90;;;;;;4995080;28;20196;-94
2020/12/22 05:31:17;;;;;;;66.70;28.17;;;-0.30;99.90;;;;;;4996253;28;20687;-95
2020/12/22 05:33:46;;;;;;;79.70;31.27;;;1.60;99.90;;;;;;4977965;28;20244;-95
2020/12/22 05:36:12;;;;;;;62.60;26.60;;;-0.30;99.90;;;;;;4977420;28;20273;-94
2020/12/22 05:38:38;;;;;;;57.50;24.83;;;1.10;99.90;;;;;;4978024;28;20221;-95
2020/12/22 05:41:05;;;;;;;62.83;29.43;;;-0.20;99.90;;;;;;4993177;28;20188;-94
2020/12/22 05:43:42;;;;;;;56.93;27.23;;;1.60;99.90;;;;;;4977335;28;20206;-94
2020/12/22 05:46:09;;;;;;;59.73;27.73;;;1.80;99.90;;;;;;4989362;28;20226;-93
2020/12/22 05:48:36;;;;;;;59.53;26.60;;;1.20;99.90;;;;;;4975281;28;20180;-94
2020/12/22 05:51:06;;;;;;;58.80;28.17;;;0.00;99.90;;;;;;4976385;28;20279;-95
2020/12/22 05:53:32;;;;;;;66.67;27.23;;;1.40;99.90;;;;;;4959823;28;20231;-94
2020/12/22 05:56:23;;;;;;;56.80;26.17;;;2.40;99.90;;;;;;4976559;28;20184;-96
2020/12/22 05:58:50;;;;;;;55.50;23.13;;;-0.20;99.90;;;;;;5002649;28;20622;-96
2020/12/22 06:01:34;;;;;;;51.97;23.70;;;0.40;99.90;;;;;;4975719;28;20274;-94
2020/12/22 06:04:03;;;;;;;61.20;27.53;;;-0.20;99.90;;;;;;4977134;28;20171;-92
2020/12/22 06:06:30;;;;;;;56.53;28.20;;;1.90;99.90;;;;;;4975859;28;20187;-95
2020/12/22 06:08:57;;;;;;;67.40;28.60;;;0.00;99.90;;;;;;4974566;28;20185;-95
2020/12/22 06:11:24;;;;;;;89.57;35.87;;;-0.10;99.90;;;;;;4976892;28;20220;-93
2020/12/22 06:13:51;;;;;;;102.73;36.40;;;0.00;99.90;;;;;;4973085;28;20563;-93
2020/12/22 06:16:23;;;;;;;84.10;33.20;;;2.50;99.90;;;;;;4974752;28;20182;-94
2020/12/22 06:18:50;;;;;;;93.27;35.00;;;0.20;99.90;;;;;;4956972;28;20270;-94
2020/12/22 06:21:20;;;;;;;78.23;30.00;;;2.00;99.90;;;;;;4974262;28;20186;-93
2020/12/22 06:23:50;;;;;;;98.53;36.10;;;-1.40;99.90;;;;;;4976275;28;20276;-93
2020/12/22 06:26:19;;;;;;;92.43;35.37;;;0.10;99.90;;;;;;4974735;28;20207;-93
2020/12/22 06:28:45;;;;;;;112.47;40.63;;;1.70;99.90;;;;;;4976086;28;20214;-94
2020/12/22 06:31:16;;;;;;;113.33;39.67;;;0.20;99.90;;;;;;4977491;28;20204;-91
2020/12/22 06:33:42;;;;;;;93.17;34.93;;;0.20;99.90;;;;;;4960523;28;20224;-93
2020/12/22 06:36:09;;;;;;;107.73;37.23;;;0.30;99.90;;;;;;4969005;28;20194;-92
2020/12/22 06:38:57;;;;;;;112.50;40.07;;;0.10;99.90;;;;;;4976406;28;20189;-92
2020/12/22 06:41:35;;;;;;;106.20;39.20;;;0.20;99.90;;;;;;4975996;28;20186;-90
2020/12/22 06:44:26;;;;;;;119.57;43.23;;;0.20;99.90;;;;;;4992836;28;20202;-93
2020/12/22 06:46:59;;;;;;;82.67;33.27;;;0.30;99.90;;;;;;4977229;28;20649;-88
2020/12/22 06:49:47;;;;;;;76.93;32.23;;;0.30;99.90;;;;;;4960333;28;20721;-92
2020/12/22 06:52:33;;;;;;;94.73;35.10;;;0.30;99.90;;;;;;4993640;28;20284;-90
2020/12/22 06:55:00;;;;;;;81.57;33.20;;;1.90;99.90;;;;;;4976787;28;20289;-95
2020/12/22 06:57:43;;;;;;;99.67;37.37;;;2.20;99.90;;;;;;4977481;28;20179;-95
2020/12/22 07:00:22;;;;;;;97.53;34.13;;;1.50;99.90;;;;;;4976187;28;20188;-93
2020/12/22 07:02:48;;;;;;;83.03;32.57;;;2.60;99.90;;;;;;4974372;28;20192;-92
2020/12/22 07:05:35;;;;;;;97.33;36.77;;;1.10;99.90;;;;;;4974779;28;20181;-91
2020/12/22 07:08:02;;;;;;;146.33;45.93;;;0.90;99.90;;;;;;4974655;28;20171;-93
2020/12/22 07:10:28;;;;;;;119.77;40.53;;;0.60;99.90;;;;;;4974636;28;20174;-91
2020/12/22 07:12:59;;;;;;;136.37;43.87;;;0.70;99.90;;;;;;4990750;28;20205;-93
2020/12/22 07:15:35;;;;;;;91.67;34.80;;;0.70;99.90;;;;;;4991171;28;20246;-92
2020/12/22 07:18:14;;;;;;;85.57;34.70;;;0.70;99.90;;;;;;4955448;29;20178;-92
2020/12/22 07:20:42;;;;;;;150.07;50.93;;;3.10;99.90;;;;;;4955119;29;20175;-92
2020/12/22 07:23:10;;;;;;;133.10;47.30;;;3.30;99.90;;;;;;4956428;29;20644;-91
2020/12/22 07:25:37;;;;;;;118.37;42.47;;;1.70;99.90;;;;;;4955254;29;20186;-91
2020/12/22 07:28:04;;;;;;;78.40;31.50;;;3.10;99.90;;;;;;4955473;29;20202;-89
2020/12/22 07:30:30;;;;;;;91.50;35.97;;;1.30;99.90;;;;;;4940320;29;20183;-91
2020/12/22 07:33:00;;;;;;;83.93;31.80;;;3.40;99.90;;;;;;4955285;29;20191;-89
2020/12/22 07:35:27;;;;;;;94.17;37.67;;;1.90;99.90;;;;;;4954899;29;20234;-91
2020/12/22 07:38:10;;;;;;;72.13;33.43;;;2.90;99.90;;;;;;4968685;28;20204;-91
2020/12/22 07:40:40;;;;;;;73.27;31.70;;;0.90;99.90;;;;;;4989566;28;20253;-89
2020/12/22 07:43:13;;;;;;;57.03;26.43;;;1.70;99.90;;;;;;4958153;28;20229;-91
2020/12/22 07:45:52;;;;;;;69.10;30.53;;;1.30;99.90;;;;;;4974159;28;20229;-91
2020/12/22 07:48:19;;;;;;;71.83;32.63;;;2.40;99.90;;;;;;4973487;28;20654;-92
2020/12/22 07:50:51;;;;;;;62.87;30.87;;;3.30;99.90;;;;;;4976464;28;20188;-94
2020/12/22 07:53:17;;;;;;;71.27;31.33;;;1.90;99.90;;;;;;4986890;28;20520;-90
2020/12/22 07:55:43;;;;;;;68.13;30.77;;;1.60;99.90;;;;;;4957380;28;20237;-90
2020/12/22 07:58:08;;;;;;;57.17;25.47;;;2.50;99.90;;;;;;4957641;28;20219;-89
2020/12/22 08:00:34;;;;;;;61.47;29.10;;;2.10;99.90;;;;;;4973407;28;20540;-90
2020/12/22 08:03:17;;;;;;;56.70;25.23;;;1.90;99.90;;;;;;4973540;28;20179;-90
2020/12/22 08:06:03;;;;;;;70.70;30.57;;;1.20;99.90;;;;;;4974690;28;20245;-88
2020/12/22 08:08:29;;;;;;;66.57;29.93;;;1.30;99.90;;;;;;4975110;28;20682;-89
2020/12/22 08:10:55;;;;;;;100.57;41.53;;;1.50;99.90;;;;;;4973606;28;20186;-89
2020/12/22 08:13:25;;;;;;;89.00;36.53;;;1.30;99.90;;;;;;4974587;28;20277;-89
2020/12/22 08:15:51;;;;;;;63.90;30.17;;;3.20;99.90;;;;;;4974832;28;20185;-89
2020/12/22 08:18:17;;;;;;;66.10;29.93;;;1.90;99.90;;;;;;4973222;28;20179;-89
2020/12/22 08:20:43;;;;;;;68.97;29.43;;;2.50;99.90;;;;;;4957112;28;20193;-90
2020/12/22 08:23:08;;;;;;;64.77;29.00;;;1.40;99.90;;;;;;4941521;28;20196;-89
2020/12/22 08:25:34;;;;;;;63.73;27.60;;;2.80;99.90;;;;;;4974673;28;20182;-89
2020/12/22 08:28:00;;;;;;;71.77;30.10;;;1.50;99.90;;;;;;4941370;28;20182;-88
2020/12/22 08:30:26;;;;;;;58.43;25.10;;;2.70;99.90;;;;;;4975102;28;20265;-89
2020/12/22 08:32:53;;;;;;;63.43;27.47;;;1.50;99.90;;;;;;4973353;28;20182;-88
2020/12/22 08:35:24;;;;;;;58.53;24.83;;;1.70;99.90;;;;;;4974507;28;20210;-88
2020/12/22 08:37:50;;;;;;;60.20;25.30;;;2.80;99.90;;;;;;4973386;28;20185;-91
2020/12/22 08:40:29;;;;;;;59.47;27.30;;;1.80;99.90;;;;;;4941501;28;20641;-88
2020/12/22 08:42:55;;;;;;;54.03;24.83;;;1.60;99.90;;;;;;4973295;28;20211;-86
2020/12/22 08:45:21;;;;;;;46.27;23.07;;;2.40;99.90;;;;;;4984117;28;20592;-88
2020/12/22 08:47:52;;;;;;;70.70;31.83;;;1.70;99.90;;;;;;4992689;28;20216;-90
2020/12/22 08:50:18;;;;;;;150.30;58.77;;;2.50;99.90;;;;;;4993829;28;20197;-87
2020/12/22 08:52:44;;;;;;;56.33;26.57;;;2.80;99.90;;;;;;4975768;28;20677;-89
2020/12/22 08:55:12;;;;;;;57.63;26.17;;;2.30;99.90;;;;;;4976535;28;20211;-89
2020/12/22 08:57:38;;;;;;;89.03;37.03;;;1.70;99.90;;;;;;4976563;28;20198;-89
2020/12/22 09:00:14;;;;;;;78.23;30.20;;;1.70;99.90;;;;;;4976295;28;20187;-88
2020/12/22 09:02:43;;;;;;;60.90;26.13;;;2.50;99.90;;;;;;4976545;28;20173;-90
2020/12/22 09:05:16;;;;;;;63.73;24.67;;;2.90;99.90;;;;;;4992517;28;20750;-91
2020/12/22 09:07:45;;;;;;;54.40;23.27;;;2.10;99.90;;;;;;4976590;28;20569;-90
2020/12/22 09:10:11;;;;;;;54.37;23.13;;;1.90;99.90;;;;;;4976645;28;20182;-90
2020/12/22 09:12:37;;;;;;;42.17;21.13;;;2.10;99.90;;;;;;4993646;28;20184;-91
2020/12/22 09:15:09;;;;;;;49.53;22.00;;;2.90;99.90;;;;;;4993669;28;20210;-91
2020/12/22 09:17:36;;;;;;;56.03;23.53;;;2.00;99.90;;;;;;4960506;28;20209;-91
2020/12/22 09:20:04;;;;;;;46.60;22.77;;;3.10;99.90;;;;;;4976468;28;20600;-91
2020/12/22 09:22:32;;;;;;;51.67;23.40;;;2.30;99.90;;;;;;4993682;28;20185;-90
2020/12/22 09:25:07;;;;;;;59.20;25.83;;;2.20;99.90;;;;;;4960304;28;20189;-88
2020/12/22 09:27:43;;;;;;;51.03;24.30;;;2.30;99.90;;;;;;4992287;28;20201;-89
2020/12/22 09:30:14;;;;;;;53.33;24.40;;;2.40;99.90;;;;;;4960388;28;20251;-90
2020/12/22 09:32:41;;;;;;;54.20;23.43;;;3.20;99.90;;;;;;4993543;28;20205;-91
2020/12/22 09:35:07;;;;;;;55.80;23.50;;;2.50;99.90;;;;;;4959849;28;20221;-91
2020/12/22 09:37:44;;;;;;;46.80;21.13;;;3.40;99.90;;;;;;4992331;28;20182;-90
2020/12/22 09:40:10;;;;;;;56.33;22.93;;;2.70;99.90;;;;;;4946601;28;20185;-91
2020/12/22 09:42:38;;;;;;;47.47;21.00;;;2.80;99.90;;;;;;4975211;28;20189;-90
2020/12/22 09:45:04;;;;;;;40.37;19.30;;;2.90;99.90;;;;;;4959679;28;20232;-91
2020/12/22 09:47:30;;;;;;;46.33;20.97;;;3.20;99.90;;;;;;4990973;28;20181;-86
2020/12/22 09:49:55;;;;;;;44.23;19.50;;;2.80;99.90;;;;;;4993053;28;20190;-90
2020/12/22 09:52:21;;;;;;;48.43;22.53;;;3.30;99.90;;;;;;4994128;28;20186;-93
2020/12/22 09:54:48;;;;;;;56.20;23.07;;;2.90;99.90;;;;;;4976485;28;20674;-92
2020/12/22 09:57:13;;;;;;;52.10;22.37;;;2.80;99.90;;;;;;4996047;28;20193;-94
2020/12/22 09:59:39;;;;;;;44.80;20.90;;;3.70;99.90;;;;;;4961420;28;20658;-92
2020/12/22 10:02:05;;;;;;;40.80;21.13;;;2.80;99.90;;;;;;4976565;28;20188;-92
2020/12/22 10:04:33;;;;;;;47.73;22.63;;;4.60;99.90;;;;;;4964355;28;20192;-89
2020/12/22 10:07:01;;;;;;;45.90;21.83;;;2.80;99.90;;;;;;4966095;28;20221;-92
2020/12/22 10:09:27;;;;;;;39.27;19.47;;;4.30;99.90;;;;;;4965656;28;20255;-87
2020/12/22 10:11:52;;;;;;;41.40;19.90;;;4.10;99.90;;;;;;4997214;28;20186;-88
2020/12/22 10:14:18;;;;;;;53.30;22.23;;;2.80;99.90;;;;;;4995749;28;20678;-85
2020/12/22 10:16:44;;;;;;;37.20;18.33;;;3.00;99.90;;;;;;4948525;28;20197;-91
2020/12/22 10:19:10;;;;;;;42.10;20.13;;;3.40;99.90;;;;;;4982137;28;20187;-89
2020/12/22 10:21:36;;;;;;;44.07;20.63;;;2.90;99.90;;;;;;4995767;28;20204;-90
2020/12/22 10:24:04;;;;;;;52.83;22.87;;;3.00;99.90;;;;;;4963166;28;20670;-88
2020/12/22 10:26:30;;;;;;;58.67;27.13;;;4.00;99.90;;;;;;4947796;28;20683;-87
2020/12/22 10:28:56;;;;;;;46.57;22.60;;;3.40;99.90;;;;;;4979388;28;20189;-89
2020/12/22 10:31:24;;;;;;;44.33;21.13;;;3.20;99.90;;;;;;4995283;28;20200;-89
2020/12/22 10:33:50;;;;;;;51.33;25.70;;;3.20;99.90;;;;;;4962917;28;20256;-92
2020/12/22 10:36:18;;;;;;;44.57;24.17;;;3.20;99.90;;;;;;4996929;28;20652;-92
2020/12/22 10:38:44;;;;;;;42.63;21.20;;;3.70;99.90;;;;;;4974521;28;20704;-93
2020/12/22 10:41:10;;;;;;;39.60;19.27;;;3.60;99.90;;;;;;4978790;28;20188;-94
2020/12/22 10:43:36;;;;;;;38.13;19.53;;;1.40;99.90;;;;;;4995996;28;20186;-92
2020/12/22 10:46:30;;;;;;;36.90;17.70;;;3.50;99.90;;;;;;4995363;28;20230;-95
2020/12/22 10:48:55;;;;;;;45.27;20.13;;;3.40;99.90;;;;;;4962585;28;20279;-90
2020/12/22 10:55:02;;;;;;;34.40;17.93;;;3.70;99.90;;;;;;4981501;28;20307;-94
2020/12/22 10:57:27;;;;;;;41.93;18.57;;;2.90;99.90;;;;;;4961994;28;20286;-87
2020/12/22 10:59:53;;;;;;;36.33;17.50;;;3.70;99.90;;;;;;4990347;28;20264;-90
2020/12/22 11:02:19;;;;;;;33.73;17.47;;;3.60;99.90;;;;;;4974778;28;20636;-91
2020/12/22 11:04:47;;;;;;;36.43;18.37;;;3.60;99.90;;;;;;4975148;28;20198;-91
2020/12/22 11:07:25;;;;;;;30.80;16.53;;;3.90;99.90;;;;;;4959172;28;20307;-90
2020/12/22 11:09:51;;;;;;;33.13;16.87;;;3.70;99.90;;;;;;4975180;28;20175;-90
2020/12/22 11:12:16;;;;;;;28.73;14.60;;;3.70;99.90;;;;;;4975335;28;20184;-91
2020/12/22 11:14:42;;;;;;;37.73;17.97;;;3.70;99.90;;;;;;4958275;28;20324;-89
2020/12/22 11:17:08;;;;;;;35.10;18.70;;;3.60;99.90;;;;;;4959960;28;20637;-85
2020/12/22 11:22:14;;;;;;;32.93;16.83;;;3.60;99.90;;;;;;4980224;28;20215;-87
2020/12/22 11:24:40;;;;;;;37.43;17.40;;;4.00;99.90;;;;;;4978326;28;20181;-88
2020/12/22 11:27:05;;;;;;;32.63;15.70;;;4.80;99.90;;;;;;4968511;28;20241;-94
2020/12/22 11:29:31;;;;;;;31.50;17.97;;;3.50;99.90;;;;;;4984300;28;20207;-94
2020/12/22 11:31:57;;;;;;;34.63;18.80;;;3.60;99.90;;;;;;4996385;28;20203;-93
2020/12/22 11:34:23;;;;;;;30.47;17.63;;;3.50;99.90;;;;;;4979923;28;20218;-92
2020/12/22 11:36:49;;;;;;;33.83;16.57;;;3.50;99.90;;;;;;4997060;28;20190;-91
2020/12/22 11:39:18;;;;;;;33.03;17.73;;;3.50;99.90;;;;;;4978264;28;20202;-94
2020/12/22 11:41:44;;;;;;;31.37;16.40;;;3.60;99.90;;;;;;4977682;28;20181;-91
2020/12/22 11:44:09;;;;;;;33.40;17.57;;;3.60;99.90;;;;;;4972742;28;20184;-89
2020/12/22 11:46:35;;;;;;;35.50;18.07;;;4.30;99.90;;;;;;4941728;28;20191;-89
2020/12/22 11:49:05;;;;;;;27.83;15.47;;;4.40;99.90;;;;;;4974437;28;20464;-89
2020/12/22 11:51:31;;;;;;;29.60;14.93;;;3.50;99.90;;;;;;4989413;28;20191;-87
2020/12/22 11:53:57;;;;;;;31.57;16.90;;;4.30;99.90;;;;;;4956634;28;20690;-90
2020/12/22 11:56:23;;;;;;;31.67;16.50;;;3.50;99.90;;;;;;4989304;28;20351;-91
2020/12/22 11:58:49;;;;;;;30.20;16.47;;;3.50;99.90;;;;;;4975675;28;20707;-91
2020/12/22 12:01:15;;;;;;;35.83;16.67;;;3.50;99.90;;;;;;4973077;28;20180;-88
2020/12/22 12:03:43;;;;;;;34.03;16.27;;;3.60;99.90;;;;;;4974655;28;20186;-88
2020/12/22 12:06:09;;;;;;;36.60;18.23;;;3.50;99.90;;;;;;4969150;28;20532;-88
2020/12/22 12:08:35;;;;;;;37.37;17.97;;;3.90;99.90;;;;;;4974905;28;20213;-89
2020/12/22 12:11:01;;;;;;;35.90;18.20;;;3.50;99.90;;;;;;4974637;28;20255;-87
2020/12/22 12:13:27;;;;;;;36.80;19.17;;;4.10;99.90;;;;;;4955929;28;20662;-89
2020/12/22 12:15:52;;;;;;;37.50;17.80;;;3.50;99.90;;;;;;4974931;28;20595;-88
2020/12/22 12:18:18;;;;;;;40.57;18.97;;;3.50;99.90;;;;;;4972933;28;20194;-89
2020/12/22 12:20:44;;;;;;;33.93;16.93;;;3.60;99.90;;;;;;4989675;28;20311;-86
2020/12/22 12:23:09;;;;;;;38.47;17.13;;;3.40;99.90;;;;;;4988449;28;20190;-86
2020/12/22 12:25:35;;;;;;;31.73;16.90;;;3.40;99.90;;;;;;4972573;28;20186;-86
2020/12/22 12:28:01;;;;;;;41.73;18.10;;;4.00;99.90;;;;;;4972873;28;20189;-87
2020/12/22 12:30:26;;;;;;;37.27;17.23;;;3.40;99.90;;;;;;4972387;28;20182;-87
2020/12/22 12:32:52;;;;;;;43.00;19.37;;;4.00;99.90;;;;;;4973653;28;20188;-86
2020/12/22 12:35:17;;;;;;;42.77;20.10;;;3.40;99.90;;;;;;4955726;28;20310;-84
2020/12/22 12:37:43;;;;;;;48.10;20.80;;;3.40;99.90;;;;;;4957322;28;20249;-86
2020/12/22 12:40:10;;;;;;;45.20;20.50;;;3.40;99.90;;;;;;4940711;28;20183;-84
2020/12/22 12:42:35;;;;;;;47.23;20.90;;;3.50;99.90;;;;;;4971281;28;20662;-86
2020/12/22 12:45:01;;;;;;;39.23;19.73;;;3.40;99.90;;;;;;4924129;28;20211;-88